Time;durP1;ratioP1;P1;durP2;ratioP2;P2;SDS_P1;SDS_P2;PMS_P1;PMS_P2;Temp;Humidity;BMP_temperature;BMP_pressure;BME280_temperature;BME280_humidity;BME280_pressure;Samples;Min_cycle;Max_cycle;Signal;HPM_P1;HPM_P2
2023/10/06 00:00:41;;;;;;;11.75;4.38;;;;;;;12.50;100.00;102511.09;5053901;28;20033;-76
2023/10/06 00:03:11;;;;;;;13.27;4.10;;;;;;;12.46;100.00;102509.59;5054960;28;20041;-76
2023/10/06 00:05:49;;;;;;;15.98;4.50;;;;;;;12.45;100.00;102508.75;5037422;28;20501;-76
2023/10/06 00:08:17;;;;;;;15.88;4.38;;;;;;;12.43;100.00;102508.00;5055264;28;20060;-76
2023/10/06 00:10:51;;;;;;;17.05;4.70;;;;;;;12.41;100.00;102498.44;5055449;28;20033;-76
2023/10/06 00:13:29;;;;;;;16.70;5.15;;;;;;;12.42;100.00;102494.78;5054969;28;20041;-77
2023/10/06 00:15:55;;;;;;;15.13;4.13;;;;;;;12.47;100.00;102493.47;5055189;28;20389;-76
2023/10/06 00:18:24;;;;;;;7.72;3.80;;;;;;;12.53;100.00;102497.53;5053352;28;20132;-76
2023/10/06 00:20:56;;;;;;;12.25;4.00;;;;;;;12.59;100.00;102497.06;5054318;28;20568;-76
2023/10/06 00:23:22;;;;;;;14.40;4.28;;;;;;;12.57;100.00;102496.34;5054504;28;20025;-76
2023/10/06 00:25:52;;;;;;;15.05;4.35;;;;;;;12.57;100.00;102492.81;5055113;28;20044;-77
2023/10/06 00:28:25;;;;;;;13.20;4.10;;;;;;;12.52;100.00;102502.03;5054687;28;20035;-76
2023/10/06 00:31:06;;;;;;;18.95;3.95;;;;;;;12.51;100.00;102500.31;5055362;28;20024;-76
2023/10/06 00:33:32;;;;;;;11.35;3.78;;;;;;;12.55;100.00;102505.41;5054320;28;20037;-76
2023/10/06 00:35:59;;;;;;;13.60;3.75;;;;;;;12.55;100.00;102502.75;5054205;28;20025;-76
2023/10/06 00:38:24;;;;;;;22.27;4.20;;;;;;;12.52;100.00;102502.03;5054136;28;20037;-77
2023/10/06 00:40:52;;;;;;;12.65;3.35;;;;;;;12.48;100.00;102497.00;5054777;28;20079;-77
2023/10/06 00:43:28;;;;;;;13.23;3.67;;;;;;;12.48;100.00;102505.88;5054656;28;20036;-77
2023/10/06 00:45:53;;;;;;;11.20;3.42;;;;;;;12.45;100.00;102489.19;5054413;28;20385;-76
2023/10/06 00:48:19;;;;;;;9.73;3.17;;;;;;;12.42;100.00;102487.63;5053618;28;20035;-77
2023/10/06 00:50:45;;;;;;;13.68;3.47;;;;;;;12.36;100.00;102490.75;5054029;28;20033;-77
2023/10/06 00:53:13;;;;;;;11.35;3.13;;;;;;;12.34;100.00;102488.16;5053757;28;20472;-77
2023/10/06 00:55:39;;;;;;;14.00;3.33;;;;;;;12.29;100.00;102490.31;5053792;28;20033;-77
2023/10/06 00:58:10;;;;;;;9.40;3.30;;;;;;;12.29;100.00;102487.66;5042883;28;20052;-77
2023/10/06 01:00:37;;;;;;;16.23;3.17;;;;;;;12.28;100.00;102491.28;5034408;28;20029;-76
2023/10/06 01:03:09;;;;;;;12.63;2.78;;;;;;;12.24;100.00;102492.47;5033767;28;20051;-76
2023/10/06 01:05:36;;;;;;;16.13;2.85;;;;;;;12.19;100.00;102486.59;5033775;28;20052;-76
2023/10/06 01:08:05;;;;;;;16.40;4.45;;;;;;;12.19;100.00;102491.94;5033675;28;20035;-76
2023/10/06 01:10:34;;;;;;;10.68;3.17;;;;;;;12.21;100.00;102484.69;5033410;28;20026;-76
2023/10/06 01:13:11;;;;;;;13.05;4.10;;;;;;;12.24;100.00;102481.81;5016001;28;20065;-76
2023/10/06 01:15:44;;;;;;;7.90;3.25;;;;;;;12.23;100.00;102480.09;5034293;28;20038;-76
2023/10/06 01:18:19;;;;;;;12.02;3.38;;;;;;;12.24;100.00;102473.81;5034087;28;20036;-77
2023/10/06 01:20:44;;;;;;;14.68;3.03;;;;;;;12.28;100.00;102477.09;5034386;28;20034;-77
2023/10/06 01:23:43;;;;;;;9.13;3.25;;;;;;;12.29;100.00;102466.31;5034271;28;20033;-77
2023/10/06 01:26:02;;;;;;;;;;;;;;;12.30;100.00;102469.81;5031492;28;20045;-76
2023/10/06 01:28:28;;;;;;;10.48;3.00;;;;;;;12.33;100.00;102464.25;5033481;28;19920;-76
2023/10/06 01:30:53;;;;;;;8.98;2.80;;;;;;;12.33;100.00;102464.25;5033409;28;20033;-76
2023/10/06 01:33:19;;;;;;;8.05;2.53;;;;;;;12.29;100.00;102458.28;5015690;28;20132;-76
2023/10/06 01:35:45;;;;;;;14.60;3.35;;;;;;;12.26;100.00;102458.53;5033642;28;20120;-76
2023/10/06 01:38:22;;;;;;;10.73;3.03;;;;;;;12.22;100.00;102464.19;5033569;28;20076;-76
2023/10/06 01:40:51;;;;;;;12.82;3.08;;;;;;;12.15;100.00;102459.31;5033558;28;20029;-76
2023/10/06 01:43:22;;;;;;;10.27;3.15;;;;;;;12.13;100.00;102463.03;5033498;28;20046;-76
2023/10/06 01:45:51;;;;;;;9.45;2.75;;;;;;;12.09;100.00;102458.88;5033954;28;20086;-76
2023/10/06 01:50:48;;;;;;;8.55;2.85;;;;;;;12.05;100.00;102462.75;5033070;28;20470;-76
2023/10/06 01:53:18;;;;;;;13.13;3.20;;;;;;;12.05;100.00;102465.41;5033141;28;20040;-76
2023/10/06 01:55:54;;;;;;;12.77;3.85;;;;;;;12.04;100.00;102458.34;5033250;28;20034;-76
2023/10/06 01:58:19;;;;;;;8.82;2.30;;;;;;;12.04;100.00;102445.84;5035841;28;20053;-77
2023/10/06 02:00:47;;;;;;;15.98;3.08;;;;;;;12.06;100.00;102446.63;5039598;28;20060;-75
2023/10/06 02:03:16;;;;;;;12.45;3.35;;;;;;;12.05;100.00;102447.56;5039611;28;20461;-76
2023/10/06 02:05:42;;;;;;;9.10;2.70;;;;;;;12.04;100.00;102451.19;5039801;28;20476;-76
2023/10/06 02:08:09;;;;;;;8.85;2.95;;;;;;;11.98;100.00;102447.16;5040444;28;20112;-76
2023/10/06 02:10:38;;;;;;;10.35;2.88;;;;;;;11.98;100.00;102457.81;5040197;28;20049;-76
2023/10/06 02:13:07;;;;;;;10.38;3.05;;;;;;;11.98;100.00;102462.31;5039723;28;20056;-76
2023/10/06 02:15:33;;;;;;;9.98;3.00;;;;;;;11.95;100.00;102459.84;5039368;28;20033;-75
2023/10/06 02:17:58;;;;;;;11.23;3.55;;;;;;;11.94;100.00;102456.34;5039554;28;20484;-75
2023/10/06 02:22:53;;;;;;;9.68;3.22;;;;;;;11.90;100.00;102452.16;5039451;28;20041;-75
2023/10/06 02:25:19;;;;;;;15.68;3.45;;;;;;;11.90;100.00;102460.16;5039743;28;20037;-76
2023/10/06 02:27:46;;;;;;;10.23;3.88;;;;;;;11.91;100.00;102456.53;5039843;28;20041;-76
2023/10/06 02:30:15;;;;;;;8.85;3.00;;;;;;;11.93;100.00;102443.97;5039361;28;20120;-76
2023/10/06 02:32:43;;;;;;;7.72;3.00;;;;;;;12.01;100.00;102447.91;5039293;28;20075;-76
2023/10/06 02:35:10;;;;;;;8.75;3.33;;;;;;;12.06;100.00;102446.63;5039483;28;20029;-76
2023/10/06 02:37:35;;;;;;;8.65;3.35;;;;;;;12.08;100.00;102449.19;5039857;28;20120;-76
2023/10/06 02:40:00;;;;;;;11.02;3.55;;;;;;;12.07;100.00;102434.97;5039413;28;20526;-75
2023/10/06 02:42:26;;;;;;;10.32;3.40;;;;;;;12.07;100.00;102436.78;5039347;28;20048;-77
2023/10/06 02:44:51;;;;;;;14.35;3.22;;;;;;;12.08;100.00;102438.50;5021278;28;20076;-76
2023/10/06 02:47:17;;;;;;;12.23;3.28;;;;;;;12.08;100.00;102435.84;5039328;28;20044;-75
2023/10/06 02:49:55;;;;;;;12.15;3.08;;;;;;;12.09;100.00;102434.84;5039171;28;20078;-76
2023/10/06 02:52:21;;;;;;;15.63;3.97;;;;;;;12.06;100.00;102430.63;5040241;28;20052;-76
2023/10/06 02:54:58;;;;;;;15.90;3.65;;;;;;;12.05;100.00;102428.06;5039159;28;20033;-76
2023/10/06 02:57:25;;;;;;;10.07;3.47;;;;;;;12.02;100.00;102422.91;5041078;28;20422;-76
2023/10/06 02:59:56;;;;;;;11.07;3.63;;;;;;;12.00;100.00;102420.34;5039049;28;20454;-76
2023/10/06 03:02:25;;;;;;;9.20;3.80;;;;;;;12.04;100.00;102416.50;5039461;28;20086;-76
2023/10/06 03:04:55;;;;;;;9.50;3.40;;;;;;;12.03;100.00;102412.13;5038975;28;20037;-76
2023/10/06 03:07:22;;;;;;;14.25;3.65;;;;;;;12.01;100.00;102407.88;5039570;28;20104;-76
2023/10/06 03:09:48;;;;;;;8.98;3.90;;;;;;;12.02;100.00;102405.13;5019488;28;20052;-76
2023/10/06 03:14:49;;;;;;;11.90;3.67;;;;;;;11.98;100.00;102398.28;5035855;28;20033;-77
2023/10/06 03:17:18;;;;;;;11.63;3.15;;;;;;;11.97;100.00;102396.56;5035841;28;20039;-76
2023/10/06 03:19:44;;;;;;;8.75;2.90;;;;;;;11.96;100.00;102393.06;5036087;28;20041;-76
2023/10/06 03:22:12;;;;;;;10.45;3.25;;;;;;;11.97;100.00;102389.44;5035816;28;20531;-76
2023/10/06 03:25:15;;;;;;;7.65;3.15;;;;;;;11.98;100.00;102395.63;5035998;28;20033;-76
2023/10/06 03:27:31;;;;;;;15.48;3.78;;;;;;;11.99;100.00;102395.50;5032609;28;20049;-76
2023/10/06 03:30:07;;;;;;;10.75;3.42;;;;;;;12.00;100.00;102388.34;5035623;28;20124;-76
2023/10/06 03:32:32;;;;;;;9.85;3.35;;;;;;;12.02;100.00;102402.44;5035643;28;20065;-76
2023/10/06 03:37:51;;;;;;;9.25;4.20;;;;;;;12.01;100.00;102403.41;5035673;28;20052;-76
2023/10/06 03:40:29;;;;;;;8.95;3.33;;;;;;;12.07;100.00;102402.09;5035436;28;20075;-77
2023/10/06 03:42:56;;;;;;;10.00;3.38;;;;;;;12.10;100.00;102405.41;5035365;28;20034;-76
2023/10/06 03:45:29;;;;;;;9.70;3.45;;;;;;;12.12;100.00;102399.94;5035771;28;20044;-75
2023/10/06 03:48:08;;;;;;;12.85;3.95;;;;;;;12.13;100.00;102405.16;5035753;28;20030;-76
2023/10/06 03:50:43;;;;;;;21.15;4.25;;;;;;;12.14;100.00;102400.72;5035845;28;20029;-75
2023/10/06 03:53:12;;;;;;;13.60;3.58;;;;;;;12.14;100.00;102401.56;5034874;28;20444;-75
2023/10/06 03:55:44;;;;;;;12.20;3.80;;;;;;;12.17;100.00;102403.16;5035139;28;20143;-76
2023/10/06 03:58:12;;;;;;;14.10;4.05;;;;;;;12.19;100.00;102403.03;5034670;28;20060;-76
2023/10/06 04:00:47;;;;;;;12.80;3.80;;;;;;;12.19;100.00;102398.53;5035043;28;20056;-77
2023/10/06 04:03:14;;;;;;;13.85;3.92;;;;;;;12.21;100.00;102395.75;5035151;28;20034;-76
2023/10/06 04:05:41;;;;;;;12.65;3.47;;;;;;;12.25;100.00;102387.41;5034984;28;20120;-76
2023/10/06 04:08:17;;;;;;;10.05;3.60;;;;;;;12.27;100.00;102374.84;5034804;28;20132;-76
2023/10/06 04:10:44;;;;;;;19.08;3.85;;;;;;;12.28;100.00;102368.50;5018143;28;20500;-76
2023/10/06 04:13:10;;;;;;;12.18;3.60;;;;;;;12.26;100.00;102362.44;5034709;28;20037;-77
2023/10/06 04:15:43;;;;;;;11.93;3.40;;;;;;;12.29;100.00;102361.38;5034818;28;20087;-76
2023/10/06 04:18:10;;;;;;;9.70;3.40;;;;;;;12.28;100.00;102360.50;5034930;28;20499;-76
2023/10/06 04:20:42;;;;;;;15.50;3.17;;;;;;;12.27;100.00;102366.81;5034347;28;20045;-77
2023/10/06 04:23:11;;;;;;;14.00;3.47;;;;;;;12.28;100.00;102363.16;5016191;28;20496;-76
2023/10/06 04:25:38;;;;;;;9.48;3.33;;;;;;;12.27;100.00;102364.16;5034527;28;20080;-76
2023/10/06 04:28:08;;;;;;;17.73;4.00;;;;;;;12.31;100.00;102367.44;5034236;28;20033;-77
2023/10/06 04:30:43;;;;;;;13.50;3.80;;;;;;;12.33;100.00;102365.50;5034522;28;20045;-75
2023/10/06 04:33:14;;;;;;;10.38;3.22;;;;;;;12.32;100.00;102362.00;5034451;28;20025;-77
2023/10/06 04:35:40;;;;;;;15.88;4.00;;;;;;;12.32;100.00;102358.47;5034382;28;20025;-77
2023/10/06 04:38:12;;;;;;;15.57;3.95;;;;;;;12.29;100.00;102362.22;5034292;28;20065;-76
2023/10/06 04:40:41;;;;;;;15.23;4.28;;;;;;;12.30;100.00;102368.41;5035110;28;20038;-77
2023/10/06 04:43:07;;;;;;;17.17;3.72;;;;;;;12.30;100.00;102363.06;5033982;28;20033;-76
2023/10/06 04:45:33;;;;;;;16.35;4.40;;;;;;;12.31;100.00;102360.28;5034316;28;20029;-76
2023/10/06 04:48:02;;;;;;;13.65;3.72;;;;;;;12.33;100.00;102355.69;5016810;28;20132;-76
2023/10/06 04:50:29;;;;;;;11.80;3.70;;;;;;;12.34;100.00;102352.03;5034719;28;20037;-76
2023/10/06 04:52:54;;;;;;;12.82;3.67;;;;;;;12.31;100.00;102349.59;5034344;28;20057;-77
2023/10/06 04:55:20;;;;;;;15.07;3.97;;;;;;;12.30;100.00;102355.06;5034315;28;20493;-76
2023/10/06 04:57:47;;;;;;;9.98;3.45;;;;;;;12.28;100.00;102354.31;5034515;28;20134;-76
2023/10/06 05:00:14;;;;;;;12.23;3.58;;;;;;;12.28;100.00;102357.00;5034497;28;20572;-76
2023/10/06 05:02:44;;;;;;;14.07;4.03;;;;;;;12.25;100.00;102354.56;5034241;28;20072;-76
2023/10/06 05:05:19;;;;;;;13.75;4.78;;;;;;;12.23;100.00;102360.00;5034673;28;20033;-76
2023/10/06 05:07:46;;;;;;;15.88;5.75;;;;;;;12.20;100.00;102365.56;5034224;28;20042;-76
2023/10/06 05:10:11;;;;;;;17.55;4.47;;;;;;;12.17;100.00;102363.13;5033608;28;20025;-76
2023/10/06 05:12:37;;;;;;;15.63;4.38;;;;;;;12.15;100.00;102357.91;5034087;28;20365;-76
2023/10/06 05:15:17;;;;;;;11.32;3.42;;;;;;;12.15;100.00;102349.91;5033305;28;20029;-76
2023/10/06 05:17:43;;;;;;;13.18;4.45;;;;;;;12.19;100.00;102347.84;5033934;28;20065;-78
2023/10/06 05:20:19;;;;;;;15.40;4.95;;;;;;;12.20;100.00;102349.56;5033579;28;20488;-76
2023/10/06 05:22:45;;;;;;;11.88;3.88;;;;;;;12.24;100.00;102359.06;5033643;28;20048;-76
2023/10/06 05:25:13;;;;;;;10.57;3.72;;;;;;;12.25;100.00;102357.22;5034000;28;20033;-76
2023/10/06 05:27:38;;;;;;;15.02;3.90;;;;;;;12.28;100.00;102357.00;5033681;28;20470;-77
2023/10/06 05:30:06;;;;;;;16.23;4.47;;;;;;;12.31;100.00;102352.28;5033686;28;20041;-76
2023/10/06 05:32:35;;;;;;;14.85;4.85;;;;;;;12.32;100.00;102355.81;5032988;28;20036;-76
2023/10/06 05:35:01;;;;;;;14.68;4.03;;;;;;;12.34;100.00;102365.38;5033371;28;20034;-76
2023/10/06 05:37:26;;;;;;;16.35;4.60;;;;;;;12.37;100.00;102371.47;5033636;28;20033;-75
2023/10/06 05:39:52;;;;;;;11.35;3.97;;;;;;;12.37;100.00;102363.47;5033262;28;20029;-79
2023/10/06 05:42:17;;;;;;;18.63;4.45;;;;;;;12.35;100.00;102369.78;5033636;28;20032;-75
2023/10/06 05:44:42;;;;;;;12.88;4.18;;;;;;;12.38;100.00;102367.84;5015832;28;20536;-76
2023/10/06 05:47:08;;;;;;;13.93;4.43;;;;;;;12.37;100.00;102361.66;5033536;28;20037;-79
2023/10/06 05:49:35;;;;;;;11.32;4.10;;;;;;;12.37;100.00;102353.63;5033225;28;20117;-76
2023/10/06 05:52:03;;;;;;;14.73;4.93;;;;;;;12.40;100.00;102361.41;5033196;28;20465;-77
2023/10/06 05:54:29;;;;;;;14.73;4.68;;;;;;;12.42;100.00;102359.50;5033163;28;20030;-78
2023/10/06 05:56:55;;;;;;;13.05;4.30;;;;;;;12.44;100.00;102357.56;5033183;28;20029;-76
2023/10/06 05:59:21;;;;;;;12.07;4.25;;;;;;;12.45;100.00;102363.75;5033120;28;20100;-76
2023/10/06 06:01:55;;;;;;;15.73;4.40;;;;;;;12.46;100.00;102349.44;5033351;28;20438;-76
2023/10/06 06:04:27;;;;;;;17.85;5.45;;;;;;;12.48;100.00;102342.16;5033074;28;20048;-77
2023/10/06 06:06:56;;;;;;;15.70;5.18;;;;;;;12.48;100.00;102335.00;5033654;28;20034;-77
2023/10/06 06:09:24;;;;;;;15.00;5.20;;;;;;;12.48;100.00;102339.47;5033037;28;20034;-76
2023/10/06 06:11:50;;;;;;;12.43;5.07;;;;;;;12.47;100.00;102338.63;5033239;28;20386;-77
2023/10/06 06:14:15;;;;;;;18.35;4.78;;;;;;;12.48;100.00;102335.00;5032957;28;20039;-77
2023/10/06 06:16:44;;;;;;;12.68;5.10;;;;;;;12.46;100.00;102338.75;5015385;28;20109;-77
2023/10/06 06:19:11;;;;;;;11.45;4.63;;;;;;;12.45;100.00;102337.03;5032905;28;20041;-77
2023/10/06 06:21:38;;;;;;;16.27;4.85;;;;;;;12.44;100.00;102332.69;5033503;28;20128;-78
2023/10/06 06:24:06;;;;;;;15.85;5.20;;;;;;;12.42;100.00;102335.47;5033680;28;20030;-78
2023/10/06 06:26:32;;;;;;;11.05;4.82;;;;;;;12.42;100.00;102339.94;5033143;28;20402;-78
2023/10/06 06:29:02;;;;;;;12.05;4.82;;;;;;;12.42;100.00;102335.47;5015247;28;20083;-78
2023/10/06 06:31:28;;;;;;;15.80;5.30;;;;;;;12.42;100.00;102335.47;5033557;28;20030;-78
2023/10/06 06:33:57;;;;;;;17.80;5.47;;;;;;;12.45;100.00;102342.38;5032638;28;20272;-77
2023/10/06 06:36:22;;;;;;;17.63;5.00;;;;;;;12.46;100.00;102342.28;5032644;28;20033;-78
2023/10/06 06:38:48;;;;;;;14.93;5.10;;;;;;;12.49;100.00;102350.03;5032851;28;20029;-77
2023/10/06 06:41:14;;;;;;;23.52;6.05;;;;;;;12.52;100.00;102346.31;5032552;28;20034;-79
2023/10/06 06:43:44;;;;;;;12.85;4.95;;;;;;;12.53;100.00;102343.50;5032623;28;20040;-79
2023/10/06 06:46:10;;;;;;;14.15;5.60;;;;;;;12.55;100.00;102343.41;5035693;28;20048;-79
2023/10/06 06:48:35;;;;;;;15.55;5.15;;;;;;;12.59;100.00;102354.72;5036279;28;20029;-79
2023/10/06 06:51:01;;;;;;;15.10;5.50;;;;;;;12.63;100.00;102349.03;5018161;28;20394;-79
2023/10/06 06:53:26;;;;;;;17.67;5.10;;;;;;;12.69;100.00;102353.06;5036150;28;20038;-76
2023/10/06 06:55:51;;;;;;;15.57;5.03;;;;;;;12.74;100.00;102347.38;5036267;28;20072;-78
2023/10/06 06:58:17;;;;;;;15.00;5.40;;;;;;;12.82;100.00;102345.81;5035964;28;20049;-77
2023/10/06 07:00:43;;;;;;;14.30;5.28;;;;;;;12.90;100.00;102350.56;5018642;28;20128;-79
2023/10/06 07:03:10;;;;;;;19.27;6.05;;;;;;;12.99;100.00;102351.69;5035911;28;20076;-78
2023/10/06 07:05:36;;;;;;;15.73;5.20;;;;;;;13.07;100.00;102353.75;5035795;28;20116;-78
2023/10/06 07:08:04;;;;;;;17.83;4.93;;;;;;;13.15;100.00;102346.88;5035671;28;20137;-78
2023/10/06 07:10:30;;;;;;;11.18;4.57;;;;;;;13.26;100.00;102358.53;5035831;28;20457;-77
2023/10/06 07:12:58;;;;;;;13.55;5.03;;;;;;;13.37;100.00;102362.09;5035789;28;20025;-79
2023/10/06 07:15:24;;;;;;;9.13;4.40;;;;;;;13.51;100.00;102361.00;5035626;28;20033;-76
2023/10/06 07:17:54;;;;;;;18.98;5.28;;;;;;;13.66;100.00;102368.78;5017478;28;20026;-77
2023/10/06 07:20:26;;;;;;;12.85;4.93;;;;;;;13.82;100.00;102363.91;5035831;28;20037;-78
2023/10/06 07:22:55;;;;;;;16.23;5.38;;;;;;;13.95;100.00;102366.44;5036370;28;20032;-79
2023/10/06 07:25:24;;;;;;;14.38;4.43;;;;;;;14.08;100.00;102366.31;5035754;28;20470;-79
2023/10/06 07:27:52;;;;;;;14.13;4.25;;;;;;;14.21;100.00;102361.66;5035724;28;20071;-79
2023/10/06 07:30:22;;;;;;;11.60;4.70;;;;;;;14.33;100.00;102365.16;5035953;28;20044;-79
2023/10/06 07:32:48;;;;;;;11.80;3.47;;;;;;;14.46;100.00;102365.84;5035503;28;20048;-78
2023/10/06 07:35:15;;;;;;;11.73;4.20;;;;;;;14.61;100.00;102376.28;5035713;28;20025;-79
2023/10/06 07:37:44;;;;;;;15.65;4.32;;;;;;;14.66;100.00;102367.84;5035454;28;20060;-79
2023/10/06 07:40:14;;;;;;;16.35;4.55;;;;;;;14.68;100.00;102369.44;5035599;28;20045;-78
2023/10/06 07:42:45;;;;;;;14.55;4.63;;;;;;;14.70;100.00;102369.28;5036083;28;20163;-77
2023/10/06 07:45:11;;;;;;;11.17;3.83;;;;;;;14.70;100.00;102374.66;5035321;28;20124;-78
2023/10/06 07:47:38;;;;;;;10.75;3.85;;;;;;;14.70;100.00;102380.00;5017809;28;20033;-78
2023/10/06 07:50:05;;;;;;;13.00;4.45;;;;;;;14.66;100.00;102384.78;5035346;28;20029;-79
2023/10/06 07:52:33;;;;;;;13.30;4.15;;;;;;;14.63;100.00;102383.22;5035670;28;20029;-79
2023/10/06 07:55:06;;;;;;;14.93;4.32;;;;;;;14.72;100.00;102384.28;5017707;28;20470;-78
2023/10/06 07:57:32;;;;;;;19.02;4.00;;;;;;;14.79;100.00;102379.22;5037099;28;20069;-79
2023/10/06 07:59:59;;;;;;;13.57;3.80;;;;;;;14.85;100.00;102383.22;5035363;28;20052;-78
2023/10/06 08:02:26;;;;;;;15.90;4.05;;;;;;;14.86;100.00;102384.94;5035212;28;20029;-77
2023/10/06 08:04:52;;;;;;;12.35;3.70;;;;;;;14.88;100.00;102385.66;5035220;28;20041;-77
2023/10/06 08:07:20;;;;;;;16.17;4.15;;;;;;;14.87;100.00;102391.97;5018249;28;20036;-79
2023/10/06 08:09:46;;;;;;;14.30;3.83;;;;;;;14.91;100.00;102396.09;5035063;28;20048;-78
2023/10/06 08:12:13;;;;;;;15.00;4.30;;;;;;;14.94;100.00;102396.72;5035679;28;20030;-76
2023/10/06 08:14:39;;;;;;;12.60;4.28;;;;;;;15.00;100.00;102392.63;5017981;28;20056;-77
2023/10/06 08:17:05;;;;;;;19.77;4.30;;;;;;;15.04;100.00;102394.09;5034858;28;20021;-77
2023/10/06 08:19:31;;;;;;;13.65;3.88;;;;;;;15.15;100.00;102394.03;5034703;28;20111;-77
2023/10/06 08:21:56;;;;;;;11.50;3.50;;;;;;;15.29;100.00;102402.72;5034783;28;20461;-77
2023/10/06 08:24:22;;;;;;;15.93;3.95;;;;;;;15.47;100.00;102400.28;5035252;28;20443;-77
2023/10/06 08:26:48;;;;;;;10.32;4.07;;;;;;;15.75;100.00;102392.47;5035083;28;20046;-77
2023/10/06 08:29:14;;;;;;;14.93;4.82;;;;;;;15.99;100.00;102382.28;5034354;28;20059;-78
2023/10/06 08:31:39;;;;;;;14.90;3.70;;;;;;;16.16;100.00;102388.81;5034923;28;20125;-77
2023/10/06 08:34:05;;;;;;;16.10;3.88;;;;;;;16.30;100.00;102400.16;5034909;28;20034;-77
2023/10/06 08:36:32;;;;;;;13.15;3.30;;;;;;;16.40;100.00;102401.84;5034896;28;20419;-77
2023/10/06 08:38:58;;;;;;;11.98;3.83;;;;;;;16.62;100.00;102397.22;5034443;28;20450;-76
2023/10/06 08:41:31;;;;;;;17.38;3.83;;;;;;;16.62;100.00;102405.28;5034280;28;20446;-76
2023/10/06 08:44:02;;;;;;;8.32;3.47;;;;;;;16.67;100.00;102402.16;5034966;28;20041;-76
2023/10/06 08:46:30;;;;;;;15.65;3.67;;;;;;;16.58;100.00;102411.91;5034224;28;20034;-76
2023/10/06 08:48:56;;;;;;;16.15;3.97;;;;;;;16.49;100.00;102402.03;5034507;28;20034;-76
2023/10/06 08:51:25;;;;;;;11.27;3.30;;;;;;;16.46;100.00;102392.41;5034049;28;20037;-76
2023/10/06 08:53:55;;;;;;;19.67;3.60;;;;;;;16.51;100.00;102386.59;5034697;28;20030;-76
2023/10/06 08:56:21;;;;;;;16.27;3.95;;;;;;;16.56;100.00;102400.47;5034585;28;20469;-80
2023/10/06 08:58:47;;;;;;;22.00;3.22;;;;;;;16.55;100.00;102399.59;5033738;28;20053;-80
2023/10/06 09:01:13;;;;;;;18.85;3.60;;;;;;;16.65;100.00;102390.72;5034552;28;20409;-80
2023/10/06 09:03:38;;;;;;;17.38;3.95;;;;;;;16.78;100.00;102393.97;5033943;28;20034;-77
2023/10/06 09:06:08;;;;;;;21.20;3.95;;;;;;;16.92;100.00;102393.56;5033998;28;20120;-76
2023/10/06 09:08:42;;;;;;;16.25;3.05;;;;;;;17.06;100.00;102392.28;5033447;28;20033;-76
2023/10/06 09:11:09;;;;;;;18.40;3.38;;;;;;;17.43;100.00;102401.38;5033967;28;20026;-81
2023/10/06 09:13:36;;;;;;;11.95;3.45;;;;;;;17.68;100.00;102405.25;5033968;28;20029;-80
2023/10/06 09:16:08;;;;;;;13.52;3.38;;;;;;;17.66;100.00;102407.25;5034779;28;20222;-78
2023/10/06 09:18:34;;;;;;;12.13;3.33;;;;;;;17.37;100.00;102400.13;5034412;28;20405;-80
2023/10/06 09:21:13;;;;;;;14.20;3.50;;;;;;;17.19;100.00;102388.44;5034394;28;20086;-82
2023/10/06 09:23:42;;;;;;;14.57;3.13;;;;;;;17.04;100.00;102407.69;5034613;28;20029;-82
2023/10/06 09:26:11;;;;;;;18.73;3.40;;;;;;;16.95;100.00;102402.34;5035228;28;20107;-80
2023/10/06 09:28:54;;;;;;;14.27;3.90;;;;;;;16.94;100.00;102397.94;5017700;28;20227;-82
2023/10/06 09:31:37;;;;;;;19.38;4.13;;;;;;;16.96;100.00;102382.50;5017353;28;20033;-82
2023/10/06 09:34:07;;;;;;;14.15;4.03;;;;;;;17.00;100.00;102392.81;5034895;28;20030;-81
2023/10/06 09:36:35;;;;;;;17.35;3.70;;;;;;;17.16;100.00;102384.19;5034582;28;20026;-80
2023/10/06 09:39:02;;;;;;;15.02;3.63;;;;;;;17.43;100.00;102378.00;5034424;28;20041;-80
2023/10/06 09:41:30;;;;;;;11.65;3.05;;;;;;;17.71;100.00;102369.13;5016402;28;20112;-81
2023/10/06 09:44:03;;;;;;;15.88;3.53;;;;;;;17.76;100.00;102374.91;5034384;28;20109;-82
2023/10/06 09:46:29;;;;;;;15.20;3.35;;;;;;;17.60;100.00;102392.53;5016319;28;20088;-81
2023/10/06 09:48:59;;;;;;;16.88;3.25;;;;;;;17.60;100.00;102395.25;5033996;28;20040;-80
2023/10/06 09:51:28;;;;;;;13.75;3.58;;;;;;;17.56;100.00;102409.97;5034311;28;20104;-81
2023/10/06 09:53:54;;;;;;;10.40;3.95;;;;;;;17.62;100.00;102390.53;5033160;28;20033;-82
2023/10/06 09:56:21;;;;;;;15.70;3.42;;;;;;;17.69;100.00;102387.25;5033584;28;20029;-82
2023/10/06 09:58:48;;;;;;;13.07;3.58;;;;;;;17.77;100.00;102379.31;5033712;28;20462;-82
2023/10/06 10:01:15;;;;;;;14.65;4.05;;;;;;;17.93;100.00;102381.38;5033584;28;20378;-82
2023/10/06 10:03:41;;;;;;;12.82;3.35;;;;;;;18.04;100.00;102378.47;5033083;28;20112;-83
2023/10/06 10:06:07;;;;;;;14.65;3.88;;;;;;;18.04;100.00;102386.53;5033373;28;20045;-80
2023/10/06 10:08:34;;;;;;;18.08;3.50;;;;;;;17.95;100.00;102374.00;5033440;28;20033;-79
2023/10/06 10:11:14;;;;;;;17.25;4.00;;;;;;;17.92;100.00;102377.81;5033795;28;20030;-79
2023/10/06 10:14:06;;;;;;;12.00;3.33;;;;;;;17.86;100.00;102375.69;5034060;28;20030;-81
2023/10/06 10:16:45;;;;;;;21.55;3.38;;;;;;;17.66;100.00;102384.88;5015914;28;20342;-79
2023/10/06 10:19:14;;;;;;;21.42;3.90;;;;;;;17.62;100.00;102387.84;5034492;28;20022;-80
2023/10/06 10:21:41;;;;;;;12.38;3.50;;;;;;;17.61;100.00;102385.31;5037485;28;20071;-81
2023/10/06 10:24:09;;;;;;;16.40;4.20;;;;;;;17.49;100.00;102383.81;5037645;28;20037;-81
2023/10/06 10:26:39;;;;;;;16.13;3.72;;;;;;;17.42;100.00;102384.41;5037652;28;20029;-80
2023/10/06 10:29:13;;;;;;;18.75;3.83;;;;;;;17.51;100.00;102379.97;5037022;28;20476;-79
2023/10/06 10:31:42;;;;;;;16.67;3.50;;;;;;;17.58;100.00;102378.38;5036654;28;20569;-80
2023/10/06 10:34:21;;;;;;;11.70;3.35;;;;;;;17.54;100.00;102390.44;5020031;28;20487;-80
2023/10/06 10:36:48;;;;;;;14.20;3.35;;;;;;;17.69;100.00;102382.75;5036823;28;20030;-78
2023/10/06 10:39:17;;;;;;;17.20;3.78;;;;;;;17.84;100.00;102380.41;5036648;28;20136;-80
2023/10/06 10:41:45;;;;;;;14.10;3.42;;;;;;;18.07;100.00;102390.78;5036929;28;20029;-79
2023/10/06 10:44:12;;;;;;;19.25;3.75;;;;;;;18.09;100.00;102383.41;5036830;28;20029;-81
2023/10/06 10:47:02;;;;;;;18.08;4.28;;;;;;;18.18;100.00;102381.66;5036469;28;20025;-79
2023/10/06 10:49:32;;;;;;;15.38;4.03;;;;;;;18.21;100.00;102371.41;5037100;28;20470;-80
2023/10/06 10:52:05;;;;;;;12.57;3.58;;;;;;;18.27;100.00;102368.13;5036717;28;20033;-80
2023/10/06 10:54:33;;;;;;;23.75;3.95;;;;;;;18.27;100.00;102372.66;5037228;28;20037;-79
2023/10/06 10:57:11;;;;;;;15.75;3.88;;;;;;;18.43;100.00;102371.97;5036359;28;20037;-78
2023/10/06 11:02:41;;;;;;;12.95;3.30;;;;;;;18.29;100.00;102370.66;5037014;28;20065;-79
2023/10/06 11:05:07;;;;;;;18.92;3.90;;;;;;;18.39;100.00;102370.56;5036679;28;20041;-79
2023/10/06 11:07:35;;;;;;;13.27;3.30;;;;;;;18.44;100.00;102361.03;5036929;28;20458;-80
2023/10/06 11:10:04;;;;;;;18.08;4.43;;;;;;;18.54;100.00;102357.41;5035880;28;20508;-77
2023/10/06 11:12:30;;;;;;;17.83;3.30;;;;;;;18.52;100.00;102364.81;5036334;28;20025;-80
2023/10/06 11:15:13;;;;;;;23.00;3.35;;;;;;;18.68;100.00;102381.13;5036367;28;20120;-79
2023/10/06 11:17:43;;;;;;;19.63;3.55;;;;;;;18.66;100.00;102373.19;5036351;28;20036;-80
2023/10/06 11:20:15;;;;;;;23.63;4.30;;;;;;;18.70;100.00;102359.41;5035942;28;20037;-80
2023/10/06 11:22:54;;;;;;;15.75;3.50;;;;;;;18.60;100.00;102360.34;5036559;28;20116;-82
2023/10/06 11:25:26;;;;;;;14.70;3.45;;;;;;;18.63;100.00;102359.16;5036056;28;20079;-80
2023/10/06 11:28:03;;;;;;;19.23;3.15;;;;;;;18.55;100.00;102351.03;5036107;28;20037;-79
2023/10/06 11:30:33;;;;;;;11.38;2.63;;;;;;;18.62;100.00;102358.31;5035223;28;20086;-80